METAR Data
IDs: Format: Raw Decoded Include TAF

Data at: 2306 UTC 18 Nov 2018

KWVI 182253Z AUTO 20006KT 8SM CLR 18/07 A3004 RMK AO2 SLP170 T01780072
KWVI 182153Z AUTO 27007KT 7SM CLR 17/08 A3004 RMK AO2 SLP173 T01720083
KWVI 182053Z AUTO 24006KT 5SM HZ CLR 18/06 A3005 RMK AO2 SLP176 T01780061 56015
KWVI 181953Z AUTO 00000KT 4SM HZ CLR 15/06 A3006 RMK AO2 SLP180 T01500056
KWVI 181853Z AUTO 00000KT 4SM HZ CLR 13/07 A3008 RMK AO2 SLP184 T01280067
KWVI 181753Z AUTO 11004KT 3SM BR FEW004 09/07 A3010 RMK AO2 SLP192 T00890067 10089 20067 58006
KWVI 181741Z AUTO 11003KT 3SM BR SCT004 08/07 A3010 RMK AO2 T00830067
KWVI 181653Z AUTO 10006KT 2SM BR OVC003 08/08 A3011 RMK AO2 SLP198 T00780078
KWVI 181647Z AUTO 08003KT 2SM BR OVC002 08/08 A3011 RMK AO2
KWVI 181641Z AUTO 07004KT 1SM BR VV002 08/08 A3011 RMK AO2 T00830083
KWVI 181608Z AUTO 00000KT 1/4SM FG VV002 07/07 A3012 RMK AO2 T00670067
KWVI 181553Z AUTO 00000KT 1/2SM FG OVC002 07/07 A3012 RMK AO2 SLP201 T00670067
KWVI 181533Z AUTO 00000KT 3/4SM BR OVC002 07/07 A3012 RMK AO2 T00670067
KWVI 181520Z AUTO 00000KT 1 1/2SM BR BKN002 OVC005 07/07 A3012 RMK AO2 T00670067
KWVI 181512Z AUTO 00000KT 1 1/4SM BR BKN002 OVC005 07/07 A3012 RMK AO2 T00670067
KWVI 181504Z AUTO 00000KT 1/2SM FG OVC005 07/07 A3012 RMK AO2 T00670067
KWVI 181457Z AUTO 34003KT 3/4SM BR OVC007 07/07 A3012 RMK AO2 T00670067
KWVI 181453Z AUTO 34003KT 1 1/2SM BR OVC007 07/07 A3012 RMK AO2 SLP199 T00720072 51008
KWVI 181448Z AUTO 34003KT 1 1/4SM BR OVC007 07/07 A3011 RMK AO2
KWVI 181427Z AUTO 00000KT 3/4SM BR SCT002 OVC007 07/07 A3011 RMK AO2 T00720072
KWVI 181407Z AUTO 00000KT 1 1/4SM BR OVC003 07/07 A3011 RMK AO2 T00720072
KWVI 181353Z AUTO 00000KT 2SM BR OVC004 07/07 A3011 RMK AO2 SLP197 T00720072
KWVI 181253Z AUTO 09004KT 2SM BR OVC004 07/07 A3009 RMK AO2 SLP189 T00720072
KWVI 181153Z AUTO 00000KT 2SM BR OVC003 07/07 A3007 RMK AO2 SLP182 T00720072 10083 20072 58002
KWVI 181115Z AUTO 00000KT 2 1/2SM BR OVC003 08/08 A3007 RMK AO2 T00780078
KWVI 181100Z AUTO 05003KT 3SM BR BKN003 OVC010 08/07 A3007 RMK AO2 T00780072
KWVI 181053Z AUTO 06003KT 3SM BR SCT004 OVC010 08/07 A3008 RMK AO2 SLP184 T00830072
KWVI 180953Z AUTO 00000KT 5SM BR OVC011 08/07 A3008 RMK AO2 SLP184 T00830072
KWVI 180853Z AUTO 33004KT 5SM BR OVC012 08/07 A3008 RMK AO2 SLP186 T00780067 51004
KWVI 180753Z AUTO 33003KT 5SM BR OVC012 07/06 A3008 RMK AO2 SLP186 T00720061 401670061
KWVI 180713Z AUTO 34003KT 5SM BR BKN013 07/06 A3008 RMK AO2 T00720061
KWVI 180653Z AUTO 33004KT 4SM BR SCT013 07/07 A3008 RMK AO2 SLP186 T00720067
KWVI 180553Z AUTO 35005KT 4SM BR CLR 07/07 A3007 RMK AO2 SLP182 T00720067 10139 20072 53009
KWVI 180453Z AUTO 33003KT 4SM BR CLR 08/07 A3006 RMK AO2 SLP180 T00780072
KWVI 180353Z AUTO 34004KT 4SM BR FEW012 09/08 A3005 RMK AO2 SLP177 T00890078
KWVI 180253Z AUTO 33003KT 4SM BR CLR 09/09 A3004 RMK AO2 SLP173 T00940089 53004
KWVI 180153Z AUTO 00000KT 4SM BR CLR 11/10 A3003 RMK AO2 SLP169 T01110100
KWVI 180053Z AUTO 23003KT 3SM BR CLR 11/09 A3003 RMK AO2 SLP169 T01110094
KWVI 172353Z AUTO 24005KT 3SM HZ CLR 14/10 A3003 RMK AO2 SLP169 T01390100 10167 20133 56004
No TAF found for KWVI

KSNS 182253Z 31010KT 4SM HZ CLR 15/09 A3003 RMK AO2 SLP178 T01500094
KSNS 182153Z 32011KT 4SM HZ CLR 17/09 A3003 RMK AO2 SLP176 T01720094
KSNS 182053Z 30009KT 5SM HZ CLR 19/06 A3003 RMK AO2 SLP178 T01940061 56016
KSNS 181953Z 12009KT 4SM HZ CLR 18/06 A3004 RMK AO2 SLP181 T01830061
KSNS 181853Z 13012KT 4SM HZ CLR 16/06 A3006 RMK AO2 SLP188 T01610061
KSNS 181753Z 12010KT 3SM HZ CLR 13/07 A3008 RMK AO2 SLP194 T01280067 10128 20061 58012
KSNS 181736Z 13012KT 3SM HZ CLR 12/07 A3008 RMK AO2 T01170067
KSNS 181653Z 14010KT 2 1/2SM HZ CLR 10/07 A3010 RMK AO2 SLP203 T01000072
KSNS 181553Z 10003KT 2 1/2SM BR CLR 07/06 A3012 RMK AO2 SLP208 T00720056
KSNS 181546Z 00000KT 2SM BR CLR 07/05 A3012 RMK AO2 T00720050
KSNS 181518Z 00000KT 1 3/4SM BR CLR 06/04 A3011 RMK AO2 T00610039
KSNS 181453Z 00000KT 2 1/2SM HZ CLR 07/04 A3011 RMK AO2 SLP205 T00720044 53016
KSNS 181353Z AUTO 10004KT 3SM BR CLR 07/05 A3010 RMK AO2 SLP200 T00720050
KSNS 181327Z AUTO 18003KT 3SM BR FEW008 SCT012 08/06 A3009 RMK AO2 T00830061
KSNS 181319Z AUTO 18004KT 3SM BR BKN008 BKN012 08/07 A3009 RMK AO2 T00830067
KSNS 181253Z AUTO 15009KT 3SM BR BKN010 09/07 A3008 RMK AO2 SLP194 T00940072
KSNS 181227Z AUTO 12006KT 3SM HZ SCT012 09/07 A3007 RMK AO2 T00940067
KSNS 181153Z AUTO 00000KT 4SM HZ OVC012 09/06 A3006 RMK AO2 SLP189 T00890061 10122 20089 55004
KSNS 181053Z AUTO 11005KT 4SM HZ OVC012 11/08 A3006 RMK AO2 SLP188 T01060078
KSNS 180953Z AUTO 15005KT 4SM HZ OVC013 12/08 A3007 RMK AO2 SLP192 T01170083
KSNS 180853Z AUTO 12005KT 4SM HZ OVC014 11/08 A3008 RMK AO2 SLP193 T01110078 51004
KSNS 180845Z AUTO 10003KT 4SM HZ OVC014 12/08 A3008 RMK AO2 T01170078
KSNS 180753Z AUTO 00000KT 4SM HZ OVC015 12/08 A3007 RMK AO2 SLP193 T01170083 401610056
KSNS 180653Z AUTO 00000KT 4SM HZ OVC015 12/08 A3007 RMK AO2 SLP192 T01170083
KSNS 180624Z AUTO 00000KT 4SM HZ OVC015 12/08 A3007 RMK AO2 T01170083
KSNS 180553Z AUTO 00000KT 3SM HZ OVC014 12/08 A3006 RMK AO2 SLP189 T01170078 10139 20100 51009
KSNS 180453Z AUTO 00000KT 3SM HZ OVC013 11/08 A3005 RMK AO2 SLP186 T01110078
KSNS 180353Z AUTO 00000KT 3SM HZ OVC014 11/08 A3005 RMK AO2 SLP183 T01060078
KSNS 180341Z AUTO 00000KT 2 1/2SM HZ OVC014 11/08 A3004 RMK AO2 T01060078
KSNS 180334Z AUTO 00000KT 2 1/2SM BR OVC015 10/08 A3005 RMK AO2 T01000078
KSNS 180308Z AUTO 29003KT 3SM HZ BKN015 11/08 A3004 RMK AO2 T01060078
KSNS 180253Z 32003KT 2 1/2SM HZ SCT015 11/08 A3004 RMK AO2 SLP180 T01110083 53004
KSNS 180153Z 34003KT 2 1/2SM HZ CLR 12/08 A3002 RMK AO2 SLP175 T01220083
KSNS 180053Z 32006KT 2 1/2SM HZ CLR 13/09 A3002 RMK AO2 SLP175 T01330089
KSNS 172353Z 31006KT 2 1/2SM HZ CLR 14/09 A3002 RMK AO2 SLP176 T01390089 10161 20133 56003

KSNS 181813Z 1818/1918 12010KT 3SM HZ SKC
  FM182100 29007KT 3SM FU HZ BKN200
  FM190300 VRB03KT 3SM FU HZ BKN015 BKN200
  FM191400 12006KT 3SM FU HZ SCT012 BKN200


KMRY 182254Z 25003KT 5SM HZ FU CLR 16/09 A3004 RMK AO2 SLP183 T01610094
KMRY 182154Z 23009KT 5SM HZ FU CLR 16/09 A3004 RMK AO2 SLP183 T01610094
KMRY 182054Z 21011G20KT 4SM HZ FU CLR 16/09 A3004 RMK AO2 SLP185 T01610094 58012
KMRY 181954Z 27009G15KT 220V310 5SM HZ FU CLR 17/08 A3006 RMK AO2 SLP190 T01720078
KMRY 181854Z 25004KT 4SM HZ FU CLR 15/08 A3007 RMK AO2 SLP194 T01500078
KMRY 181754Z 02004KT 5SM HZ FU CLR 15/07 A3008 RMK AO2 SLP197 T01500072 10150 20067 58010
KMRY 181654Z 06004KT 3SM HZ FU CLR 12/08 A3009 RMK AO2 SLP201 T01170078
KMRY 181627Z 00000KT 3SM HZ FU SCT015 11/07 A3010 RMK AO2 T01060072
KMRY 181617Z 00000KT 3SM HZ FU BKN015 10/07 A3010 RMK AO2 T01000072
KMRY 181554Z 07004KT 3SM HZ FU OVC014 10/07 A3011 RMK AO2 SLP209 T01000072
KMRY 181454Z 00000KT 3SM BR FU OVC014 08/06 A3011 RMK AO2 SLP208 T00780056 51013
KMRY 181411Z 12004KT 4SM BR FU BKN015 07/06 A3010 RMK AO2 T00720056
KMRY 181354Z 10005KT 5SM BR FU FEW016 07/04 A3010 RMK AO2 SLP206 T00670044
KMRY 181254Z AUTO 00000KT 4SM BR FU CLR 08/06 A3008 RMK AO2 SLP199 T00780056
KMRY 181154Z AUTO 00000KT 4SM BR FU CLR 09/07 A3007 RMK AO2 SLP194 T00940072 10128 20094 53001
KMRY 181125Z AUTO 00000KT 4SM HZ FU SCT010 10/07 A3006 RMK AO2 T01000072
KMRY 181118Z AUTO 00000KT 4SM HZ FU BKN010 11/07 A3006 RMK AO2 T01060072
KMRY 181054Z AUTO 00000KT 4SM HZ FU OVC009 11/08 A3006 RMK AO2 SLP191 T01060078
KMRY 181025Z AUTO 08005KT 4SM HZ FU BKN011 11/08 A3006 RMK AO2 T01060078
KMRY 180954Z AUTO 08004KT 5SM HZ FU FEW014 11/07 A3007 RMK AO2 SLP193 T01060072
KMRY 180944Z AUTO 09006KT 5SM HZ FU FEW014 11/08 A3007 RMK AO2 T01110078
KMRY 180919Z AUTO 10007KT 5SM HZ FU BKN015 11/08 A3007 RMK AO2 T01110078
KMRY 180854Z AUTO 10005KT 5SM HZ FU BKN014 12/08 A3007 RMK AO2 SLP196 T01170078 50002
KMRY 180754Z AUTO 08004KT 6SM HZ FU OVC014 12/08 A3007 RMK AO2 SLP196 T01220083 401500072
KMRY 180654Z AUTO 11004KT 6SM HZ FU OVC014 12/08 A3008 RMK AO2 SLP196 T01220083
KMRY 180554Z AUTO 16004KT 6SM HZ FU OVC014 13/08 A3007 RMK AO2 SLP193 T01280083 10139 20111 53008
KMRY 180454Z 00000KT 5SM HZ FU OVC013 12/08 A3006 RMK AO2 SLP192 T01220083
KMRY 180354Z 12003KT 4SM HZ FU OVC012 12/08 A3005 RMK AO2 SLP188 T01220078
KMRY 180254Z 06003KT 4SM HZ FU OVC012 11/08 A3004 RMK AO2 SLP186 T01110078 53004
KMRY 180201Z 00000KT 4SM HZ FU OVC013 13/09 A3003 RMK AO2 T01280089
KMRY 180154Z 00000KT 2 1/2SM HZ FU OVC013 13/09 A3003 RMK AO2 SLP182 T01330089
KMRY 180054Z 00000KT 2 1/2SM HZ FU OVC014 13/09 A3003 RMK AO2 SLP181 T01330089
KMRY 172354Z 27004KT 3SM HZ FU BKN022 13/09 A3003 RMK AO2 SLP182 T01330089 10150 20122 56005

KMRY 181742Z 1818/1918 06004KT 3SM HZ FU SKC
  FM181900 29005KT 5SM FU HZ FEW018 SCT200
  FM190200 06004KT 4SM FU HZ SCT015 BKN200
  FM191300 09003KT 3SM FU HZ SCT012 BKN200


KSJC 182253Z 34006KT 3SM HZ FEW001 BKN026 OVC120 17/07 A3003 RMK AO2 SLP169 FU FEW001 FU BKN026 T01670067 $
KSJC 182153Z 31003KT 3SM HZ FEW001 BKN026 OVC120 17/07 A3004 RMK AO2 SLP170 FU FEW001 FU BKN026 T01670067 $
KSJC 182130Z 00000KT 3SM HZ FEW001 BKN026 OVC120 16/07 A3004 RMK AO2 FU FEW001 FU BKN026 T01610072 $
KSJC 182053Z 00000KT 2 1/2SM HZ FEW001 SCT013 BKN026 14/08 A3005 RMK AO2 SLP173 FU FEW001 FU SCT013 FU BKN026 T01440078 58024 $
KSJC 181953Z VRB03KT 2SM HZ FEW001 SCT015 BKN030 12/08 A3007 RMK AO2 SLP182 FU FEW001 FU SCT015 FU BKN030 T01220078 $
KSJC 181905Z 00000KT 1 3/4SM HZ FEW001 SCT008 BKN120 11/08 A3009 RMK AO2 FU FEW001 T01110078 $
KSJC 181853Z 21003KT 1 3/4SM HZ FEW001 BKN008 BKN120 11/08 A3009 RMK AO2 SLP190 FU FEW001 T01110078 $
KSJC 181753Z 00000KT 1 3/4SM HZ FEW001 OVC006 10/07 A3012 RMK AO2 SLP198 FU FEW001 T01000072 10100 20056 50001 $
KSJC 181653Z 10003KT 2SM HZ FEW001 OVC006 09/05 A3013 RMK AO2 SLP201 FU FEW001 T00890050 $
KSJC 181553Z 16003KT 2SM HZ FEW001 OVC006 08/05 A3013 RMK AO2 SLP201 FU FEW001 T00780050 $
KSJC 181516Z 19003KT 2 1/2SM HZ FEW001 BKN006 OVC025 07/04 A3012 RMK AO2 FU FEW001 FU OVC025 T00720044 $
KSJC 181453Z 17004KT 3SM HZ FEW001 BKN011 OVC025 07/04 A3011 RMK AO2 SLP197 FU FEW001 FU OVC025 T00720044 53011 $
KSJC 181353Z 00000KT 2 1/2SM BR FEW001 SCT010 BKN025 06/03 A3010 RMK AO2 SLP191 FU FEW001 FU SCT010 FU BKN025 T00560033 $
KSJC 181350Z 00000KT 2 1/2SM BR BKN009 06/03 A3010 RMK AO2 $
KSJC 181320Z AUTO 00000KT 2 1/2SM BR CLR 06/03 A3009 RMK AO2 T00560033 $
KSJC 181253Z AUTO 00000KT 3SM BR CLR 06/03 A3008 RMK AO2 SLP186 T00560033 $
KSJC 181250Z AUTO 00000KT 3SM BR CLR 06/04 A3008 RMK AO2 $
KSJC 181153Z AUTO 09003KT 2 1/2SM BR CLR 06/04 A3008 RMK AO2 SLP185 T00610039 10094 20056 50001 $
KSJC 181103Z AUTO 12003KT 2 1/2SM BR CLR 07/04 A3008 RMK AO2 T00670044 $
KSJC 181053Z AUTO 00000KT 3SM BR CLR 07/04 A3008 RMK AO2 SLP187 T00670044 $
KSJC 180953Z AUTO 20003KT 3SM HZ CLR 07/04 A3009 RMK AO2 SLP187 T00720044 $
KSJC 180853Z AUTO 14003KT 3SM BR CLR 07/04 A3008 RMK AO2 SLP184 T00670044 51003 $
KSJC 180753Z COR 00000KT 3SM HZ FEW001 SCT010 SCT030 08/06 A3007 RMK AO2 SLP182 FU FEW001 FU SCT010 FU SCT030 LAST T00830056 40178004D4 $
KSJC 180653Z 00000KT 3SM HZ FEW001 SCT012 BKN033 09/06 A3008 RMK AO2 SLP184 FU FEW001 FU SCT012 FU BKN033 T00940061 $
KSJC 180553Z 21003KT 3SM HZ FEW001 SCT014 BKN050 09/07 A3007 RMK AO2 SLP181 FU FEW001 FU SCT014 FU BKN050 T00940067 10156 20094 51013 $
KSJC 180453Z 24003KT 3SM HZ FEW001 SCT014 BKN036 11/08 A3006 RMK AO2 SLP177 FU FEW001 FU SCT014 FU BKN036 T01110083 $
KSJC 180353Z 30003KT 6SM HZ FEW001 SCT024 BKN050 12/08 A3004 RMK AO2 SLP172 FU FEW001 FU SCT024 FU BKN050 T01170083 $
KSJC 180253Z 32006KT 6SM FU HZ FEW001 SCT018 BKN031 11/08 A3003 RMK AO2 SLP168 FU FEW001 FU SCT018 FU BKN031 T01110078 53004 $
KSJC 180234Z 32006KT 6SM FU HZ FEW001 SCT018 BKN025 12/08 A3003 RMK AO2 FU FEW001 FU SCT018 FU BKN025 T01170083 $
KSJC 180153Z 32006KT 4SM FU HZ FEW001 BKN011 OVC025 12/08 A3002 RMK AO2 SLP165 FU FEW001 FU BKN011 FU OVC025 T01170078 $
KSJC 180053Z 34005KT 3SM FU HZ FEW001 BKN015 OVC025 14/09 A3002 RMK AO2 SLP164 FU FEW001 FU BKN015 FU OVC025 T01390089
KSJC 180039Z 33007KT 3SM FU HZ FEW001 BKN015 OVC025 14/09 A3001 RMK AO2 FU FEW001 FU BKN015 FU OVC025 T01390089
KSJC 172353Z 33007KT 2 1/2SM FU HZ FEW001 BKN015 OVC025 16/07 A3002 RMK AO2 SLP164 VIS SE 3 FU FEW001 FU BKN015 FU OVC025 T01560072 10178 20122 55003

KSJC 182020Z 1820/1918 VRB03KT 2SM HZ FEW001 SCT015 BKN030
  FM182100 30005KT 3SM FU HZ FEW015 SCT200
  FM190400 VRB03KT 3SM FU HZ FEW015 SCT200
  FM191300 12004KT 2SM HZ SCT010 SCT200


KSFO 182256Z 02003KT 2 1/2SM HZ FU FEW029 BKN200 13/09 A3003 RMK AO2 SLP169 T01280094 $
KSFO 182156Z 02007KT 2 1/2SM HZ FU FEW029 BKN200 13/09 A3004 RMK AO2 SLP172 FU FEW029 T01330094 $
KSFO 182056Z 03005KT 2 1/2SM HZ FU FEW008 SCT029 BKN200 13/08 A3005 RMK AO2 SLP174 FU FEW008 FU SCT029 T01280083 58021 $
KSFO 182012Z 07004KT 2SM HZ FU FEW008 SCT022 BKN200 12/08 A3006 RMK AO2 FU FEW008 FU SCT022 T01170083 $
KSFO 181956Z VRB03KT 2SM HZ FU FEW006 SCT008 OVC018 12/08 A3007 RMK AO2 SLP181 FU FEW006 FU SCT008 FU OVC018 T01170078 $
KSFO 181944Z COR 09004KT 2SM HZ FU FEW006 SCT008 OVC015 12/08 A3007 RMK AO2 FU FEW006 FU SCT008 FU OVC015 T01170078 $
KSFO 181856Z 15006KT 2SM BR FU FEW005 BKN008 OVC011 10/08 A3009 RMK AO2 SLP189 FU FEW005 FU BKN008 FU OVC011 T01000078 $
KSFO 181756Z 13009KT 2SM BR FU FEW005 BKN008 OVC010 10/08 A3011 RMK AO2 SLP195 FU FEW005 FU BKN008 FU OVC010 T01000078 10100 20067 50002 $
KSFO 181656Z 15007KT 2SM BR FU FEW003 BKN005 OVC008 09/08 A3011 RMK AO2 SLP196 FU FEW003 FU BKN005 FU OVC008 T00890078 $
KSFO 181556Z 17004KT 2SM BR FU SCT004 BKN007 OVC009 09/08 A3011 RMK AO2 SLP195 FU SCT004 FU BKN007 FU OVC009 T00940078 $
KSFO 181456Z 00000KT 2 1/2SM BR FU FEW005 BKN007 OVC009 10/08 A3010 RMK AO2 SLP193 FU FEW005 FU BKN007 FU OVC009 T01000078 51012 $
KSFO 181356Z 00000KT 3SM BR FU FEW005 OVC007 09/07 A3009 RMK AO2 SLP190 FU FEW005 FU OVC007 T00940072 $
KSFO 181326Z 00000KT 3SM BR FU FEW005 OVC007 09/07 A3009 RMK AO2 FU FEW005 FU OVC007 T00890067 $
KSFO 181256Z 22003KT 3SM BR FU FEW007 OVC010 08/06 A3008 RMK AO2 SLP186 FU FEW007 FU OVC010 T00830061 $
KSFO 181221Z 22003KT 4SM BR FU FEW007 OVC010 07/06 A3007 RMK AO2 FU FEW007 FU OVC010 T00720056 $
KSFO 181156Z 00000KT 4SM BR FU FEW009 OVC018 07/06 A3007 RMK AO2 SLP181 FU FEW009 FU OVC018 T00720056 10106 20067 50000 $
KSFO 181152Z 00000KT 4SM BR FU FEW009 BKN018 07/06 A3007 RMK AO2 FU FEW009 FU BKN018 $
KSFO 181127Z 00000KT 7SM FU OVC019 07/05 A3007 RMK AO2 FU OVC019 T00670050 $
KSFO 181056Z 16004KT 7SM FU OVC021 07/06 A3007 RMK AO2 SLP182 FU OVC021 T00720056 $
KSFO 180956Z 18004KT 7SM FU OVC022 09/06 A3007 RMK AO2 SLP183 FU OVC022 T00890061 $
KSFO 180856Z 00000KT 6SM HZ FU OVC022 08/06 A3007 RMK AO2 SLP181 FU OVC022 T00830056 53003 $
KSFO 180756Z 21003KT 6SM HZ FU BKN023 09/07 A3006 RMK AO2 SLP180 FU BKN023 T00940067 401610067 $
KSFO 180656Z 19004KT 5SM HZ FU BKN023 10/07 A3006 RMK AO2 SLP178 FU BKN023 T01000067 $
KSFO 180556Z 29005KT 3SM HZ BKN025 10/07 A3006 RMK AO2 SLP177 T01000072 10133 20100 53012 $
KSFO 180503Z 30005KT 3SM HZ BKN027 10/07 A3005 RMK AO2 T01000072 $
KSFO 180456Z 29007KT 3SM HZ SCT200 10/07 A3004 RMK AO2 SLP173 T01000072 $
KSFO 180356Z 28008KT 3SM HZ SCT200 11/07 A3003 RMK AO2 SLP170 T01110072 $
KSFO 180256Z 30008KT 3SM HZ SCT200 12/08 A3002 RMK AO2 SLP166 T01170078 53004 $
KSFO 180156Z 28010KT 3SM HZ SCT200 12/07 A3002 RMK AO2 SLP164 T01170072 $
KSFO 180056Z 29011KT 4SM HZ SCT200 12/08 A3001 RMK AO2 SLP163 T01170078
KSFO 172356Z 29011KT 4SM HZ FEW027 SCT200 13/08 A3001 RMK AO2 SLP162 T01330078 10161 20128 57005

KSFO 182107Z 1821/1924 03005KT 2SM HZ FU FEW008 SCT029 BKN200
  FM190400 29005KT 3SM FU HZ FEW008 SCT015 BKN200
  FM191300 VRB03KT 2SM FU HZ BKN009
  FM191900 VRB03KT 3SM HZ SCT011 SCT200
  FM192200 29005KT 4SM HZ FEW015 SCT150


KHAF 182300Z AUTO 22003KT 2SM HZ CLR 14/10 A3005 RMK AO2
KHAF 182255Z AUTO 19003KT 2SM HZ CLR 14/10 A3005 RMK AO2
KHAF 182240Z AUTO 19006KT 2 1/2SM HZ CLR 14/10 A3005 RMK AO2
KHAF 182235Z AUTO 20006KT 2 1/2SM HZ CLR 14/10 A3005 RMK AO2
KHAF 182220Z AUTO 17005KT 2SM HZ CLR 14/10 A3005 RMK AO2
KHAF 182215Z AUTO 15005KT 2SM HZ CLR 14/10 A3006 RMK AO2
KHAF 182200Z AUTO 16006KT 2SM HZ CLR 14/10 A3006 RMK AO2
KHAF 182155Z AUTO 16007KT 2SM HZ CLR 14/10 A3006 RMK AO2
KHAF 182140Z AUTO 17008KT 2 1/2SM HZ CLR 14/10 A3006 RMK AO2
KHAF 182135Z AUTO 17008KT 3SM HZ CLR 14/10 A3007 RMK AO2
KHAF 182120Z AUTO 17009KT 3SM HZ CLR 14/10 A3006 RMK AO2
KHAF 182115Z AUTO 18009KT 4SM HZ CLR 14/10 A3006 RMK AO2
KHAF 182100Z AUTO 17008KT 3SM HZ CLR 14/10 A3006 RMK AO2
KHAF 182055Z AUTO 17009KT 3SM HZ CLR 14/10 A3006 RMK AO2
KHAF 182040Z AUTO 16009KT 4SM HZ CLR 14/10 A3007 RMK AO2
KHAF 182035Z AUTO 17010KT 4SM HZ CLR 14/10 A3007 RMK AO2
KHAF 182020Z AUTO 16011KT 3SM HZ CLR 15/09 A3007 RMK AO2
KHAF 182015Z AUTO 17012KT 3SM HZ CLR 15/09 A3007 RMK AO2
KHAF 182000Z AUTO 16006KT 3SM HZ CLR 15/08 A3007 RMK AO2
KHAF 181955Z AUTO 15004KT 3SM HZ CLR 15/09 A3007 RMK AO2
KHAF 181940Z AUTO 27004KT 3SM HZ CLR 14/09 A3007 RMK AO2
KHAF 181935Z AUTO 25005KT 4SM HZ CLR 14/09 A3007 RMK AO2
KHAF 181920Z AUTO 25006KT 4SM HZ CLR 14/09 A3007 RMK AO2
KHAF 181915Z AUTO 24005KT 4SM HZ CLR 14/09 A3007 RMK AO2
KHAF 181900Z AUTO 24003KT 4SM HZ CLR 14/09 A3007 RMK AO2
KHAF 181855Z AUTO 24003KT 4SM HZ CLR 14/08 A3007 RMK AO2
KHAF 181840Z AUTO 23004KT 5SM HZ CLR 14/09 A3007 RMK AO2
KHAF 181835Z AUTO 23004KT 5SM HZ CLR 14/09 A3007 RMK AO2
KHAF 181820Z AUTO 21003KT 5SM HZ CLR 13/09 A3008 RMK AO2
KHAF 181815Z AUTO 21004KT 4SM HZ CLR 14/09 A3008 RMK AO2
KHAF 181800Z AUTO 19004KT 5SM HZ CLR 13/10 A3008 RMK AO2
KHAF 181755Z AUTO 18004KT 5SM HZ CLR 13/10 A3008 RMK AO2
KHAF 181740Z AUTO 15003KT 5SM HZ CLR 13/10 A3009 RMK AO2
KHAF 181735Z AUTO 15003KT 5SM HZ CLR 13/10 A3009 RMK AO2
KHAF 181720Z AUTO 22003KT 4SM BR CLR 12/10 A3009 RMK AO2
KHAF 181715Z AUTO 24004KT 4SM BR CLR 12/10 A3009 RMK AO2
KHAF 181700Z AUTO 26003KT 3SM BR CLR 12/10 A3010 RMK AO2
KHAF 181655Z AUTO 27005KT 5SM BR CLR 11/10 A3010 RMK AO2
KHAF 181640Z AUTO 00000KT 3SM BR CLR 09/08 A3010 RMK AO2
KHAF 181635Z AUTO 00000KT 3SM BR CLR 08/08 A3010 RMK AO2
KHAF 181620Z AUTO 00000KT 3SM BR CLR 07/07 A3011 RMK AO2
KHAF 181615Z AUTO 00000KT 2 1/2SM BR CLR 06/06 A3011 RMK AO2
KHAF 181600Z AUTO 04003KT 2SM BR CLR 05/05 A3011 RMK AO2
KHAF 181555Z AUTO 00000KT 1 3/4SM BR CLR 05/04 A3011 RMK AO2
KHAF 181540Z AUTO 04003KT 2SM BR CLR 04/04 A3011 RMK AO2
KHAF 181535Z AUTO 05004KT 2SM BR CLR 04/04 A3011 RMK AO2
KHAF 181520Z AUTO 03004KT 2SM BR CLR 04/03 A3011 RMK AO2
KHAF 181515Z AUTO 04004KT 1 3/4SM BR CLR 03/02 A3011 RMK AO2
KHAF 181500Z AUTO 04003KT 1 1/2SM BR BKN022 04/03 A3011 RMK AO2
KHAF 181455Z AUTO 04004KT 1 1/4SM BR SCT005 BKN022 03/03 A3011 RMK AO2
KHAF 181440Z AUTO 06004KT 2 1/2SM BR SCT005 OVC020 03/03 A3011 RMK AO2
KHAF 181435Z AUTO 05004KT 2 1/2SM BR BKN005 OVC018 04/03 A3011 RMK AO2
KHAF 181420Z AUTO 08004KT 2 1/2SM BR BKN004 OVC018 04/03 A3011 RMK AO2
KHAF 181415Z AUTO 00000KT 1 1/2SM BR OVC004 04/03 A3011 RMK AO2
KHAF 181400Z AUTO 03003KT 3/4SM BR OVC003 03/03 A3011 RMK AO2
KHAF 181355Z AUTO 00000KT M1/4SM FG OVC004 03/03 A3010 RMK AO2
KHAF 181340Z AUTO 00000KT M1/4SM FG OVC004 02/02 A3010 RMK AO2
KHAF 181335Z AUTO 00000KT 1/2SM FG BKN004 OVC018 03/03 A3010 RMK AO2
KHAF 181320Z AUTO 00000KT 1SM BR OVC018 03/03 A3009 RMK AO2
KHAF 181315Z AUTO 00000KT 1 1/2SM BR OVC018 03/03 A3009 RMK AO2
KHAF 181300Z AUTO 00000KT 1 1/2SM BR OVC016 04/03 A3009 RMK AO2 VSBY 1V2 1/2
KHAF 181255Z AUTO 00000KT 2SM BR OVC019 03/03 A3009 RMK AO2
KHAF 181240Z AUTO 00000KT 1 3/4SM BR OVC019 03/03 A3009 RMK AO2
KHAF 181235Z AUTO 06003KT 3SM BR OVC019 04/04 A3008 RMK AO2
KHAF 181220Z AUTO 04003KT 2 1/2SM BR BKN019 03/03 A3008 RMK AO2
KHAF 181215Z AUTO 04004KT 2SM BR OVC019 03/03 A3008 RMK AO2
KHAF 181200Z AUTO 00000KT M1/4SM FG OVC017 03/03 A3007 RMK AO2
KHAF 181155Z AUTO 00000KT 1/2SM FG OVC017 04/04 A3007 RMK AO2
KHAF 181140Z AUTO 00000KT 1/2SM FG BKN017 OVC026 03/03 A3007 RMK AO2
KHAF 181135Z AUTO 00000KT 1 1/2SM BR SCT017 SCT022 OVC029 04/04 A3007 RMK AO2
KHAF 181120Z AUTO 00000KT M1/4SM FG OVC022 03/03 A3007 RMK AO2
KHAF 181115Z AUTO 00000KT M1/4SM FG OVC022 03/03 A3007 RMK AO2
KHAF 181100Z AUTO 00000KT 3/4SM BR OVC020 03/03 A3007 RMK AO2
KHAF 181055Z AUTO 00000KT 1 1/4SM BR OVC020 04/03 A3007 RMK AO2
KHAF 181040Z AUTO 00000KT 1/2SM FG OVC020 03/03 A3008 RMK AO2
KHAF 181035Z AUTO 00000KT 3/4SM BR BKN014 OVC020 04/03 A3008 RMK AO2
KHAF 181020Z AUTO 00000KT 3SM BR BKN014 OVC022 04/03 A3008 RMK AO2
KHAF 181015Z AUTO 00000KT 3SM BR BKN014 OVC022 04/03 A3008 RMK AO2
KHAF 181000Z AUTO 00000KT 4SM BR BKN014 OVC022 04/04 A3008 RMK AO2
KHAF 180955Z AUTO 00000KT 4SM BR SCT014 OVC022 05/05 A3008 RMK AO2
KHAF 180940Z AUTO 00000KT 1 3/4SM BR BKN014 OVC022 05/05 A3008 RMK AO2
KHAF 180935Z AUTO 00000KT 1SM BR OVC016 04/04 A3008 RMK AO2
KHAF 180920Z AUTO 00000KT 1 3/4SM BR OVC016 04/04 A3007 RMK AO2
KHAF 180915Z AUTO 00000KT 1 1/4SM BR BKN016 OVC022 05/04 A3008 RMK AO2
KHAF 180900Z AUTO 00000KT 3SM BR BKN016 OVC023 04/03 A3008 RMK AO2
KHAF 180855Z AUTO 00000KT 3SM BR BKN016 OVC023 05/04 A3008 RMK AO2
KHAF 180840Z AUTO 00000KT 5SM BR OVC016 04/04 A3008 RMK AO2
KHAF 180835Z AUTO 04003KT 5SM BR OVC016 05/05 A3008 RMK AO2
KHAF 180820Z AUTO 06005KT 4SM BR FEW002 OVC016 04/04 A3008 RMK AO2
KHAF 180815Z AUTO 00000KT 4SM BR OVC016 04/03 A3008 RMK AO2
KHAF 180800Z AUTO 00000KT 2 1/2SM BR OVC014 04/04 A3008 RMK AO2 VSBY 1 3/4V5
KHAF 180755Z AUTO 00000KT 2 1/2SM BR OVC016 05/04 A3008 RMK AO2
KHAF 180740Z AUTO 00000KT 3SM BR OVC016 04/03 A3008 RMK AO2
KHAF 180735Z AUTO 00000KT 3SM BR OVC016 04/03 A3008 RMK AO2
KHAF 180720Z AUTO 00000KT 4SM BR OVC016 04/04 A3008 RMK AO2
KHAF 180715Z AUTO 00000KT 4SM BR OVC016 05/04 A3008 RMK AO2
KHAF 180700Z AUTO 00000KT 4SM BR OVC016 06/05 A3008 RMK AO2
KHAF 180655Z AUTO 00000KT 3SM BR OVC016 06/05 A3008 RMK AO2
KHAF 180640Z AUTO 00000KT 2 1/2SM BR BKN014 BKN022 OVC027 05/04 A3008 RMK AO2
KHAF 180635Z AUTO 00000KT 3SM BR BKN014 BKN022 OVC027 05/04 A3008 RMK AO2
KHAF 180620Z AUTO 00000KT 5SM BR BKN018 OVC025 05/04 A3007 RMK AO2
KHAF 180615Z AUTO 00000KT 5SM BR FEW013 BKN018 OVC027 06/05 A3007 RMK AO2
KHAF 180600Z AUTO 00000KT 4SM BR FEW013 OVC020 06/05 A3007 RMK AO2
KHAF 180555Z AUTO 00000KT 4SM BR FEW013 OVC020 05/04 A3007 RMK AO2
KHAF 180540Z AUTO 00000KT 4SM BR FEW013 OVC020 05/04 A3007 RMK AO2
KHAF 180535Z AUTO 00000KT 4SM BR FEW013 OVC020 05/04 A3006 RMK AO2
KHAF 180520Z AUTO 00000KT 4SM BR OVC019 05/04 A3006 RMK AO2
KHAF 180515Z AUTO 00000KT 3SM BR OVC019 05/04 A3006 RMK AO2
KHAF 180500Z AUTO 00000KT 4SM BR OVC017 05/04 A3006 RMK AO2
KHAF 180455Z AUTO 00000KT 4SM BR OVC019 05/04 A3006 RMK AO2
KHAF 180440Z AUTO 00000KT 4SM BR OVC017 05/04 A3006 RMK AO2
KHAF 180435Z AUTO 00000KT 4SM BR OVC017 05/04 A3006 RMK AO2
KHAF 180420Z AUTO 00000KT 3SM BR OVC019 05/04 A3006 RMK AO2
KHAF 180415Z AUTO 00000KT 3SM BR OVC019 05/04 A3006 RMK AO2
KHAF 180400Z AUTO 00000KT 5SM BR OVC019 06/05 A3006 RMK AO2
KHAF 180355Z AUTO 00000KT 5SM BR OVC019 06/05 A3006 RMK AO2
KHAF 180340Z AUTO 00000KT 5SM BR OVC019 06/04 A3005 RMK AO2
KHAF 180335Z AUTO 00000KT 5SM BR OVC019 06/04 A3005 RMK AO2
KHAF 180320Z AUTO 00000KT 4SM BR BKN021 OVC028 07/05 A3005 RMK AO2
KHAF 180315Z AUTO 00000KT 5SM BR BKN021 OVC028 07/05 A3005 RMK AO2
KHAF 180300Z AUTO 00000KT 5SM BR FEW021 BKN026 08/06 A3005 RMK AO2
KHAF 180255Z AUTO 00000KT 5SM BR BKN028 08/06 A3005 RMK AO2
KHAF 180240Z AUTO 00000KT 4SM BR FEW028 07/06 A3004 RMK AO2
KHAF 180235Z AUTO 00000KT 4SM BR FEW025 07/06 A3004 RMK AO2
KHAF 180220Z AUTO 00000KT 4SM BR FEW019 SCT026 08/06 A3004 RMK AO2
KHAF 180215Z AUTO 00000KT 4SM BR FEW019 SCT026 08/05 A3004 RMK AO2
KHAF 180200Z AUTO 00000KT 5SM HZ FEW019 SCT026 09/06 A3004 RMK AO2
KHAF 180155Z AUTO 00000KT 5SM BR FEW019 SCT026 09/07 A3004 RMK AO2
KHAF 180140Z AUTO 02003KT 5SM HZ FEW019 09/07 A3004 RMK AO2
KHAF 180135Z AUTO 00000KT 5SM HZ SCT019 09/07 A3003 RMK AO2
KHAF 180120Z AUTO 00000KT 4SM HZ FEW019 10/07 A3003 RMK AO2
KHAF 180115Z AUTO 00000KT 3SM HZ FEW019 10/07 A3003 RMK AO2
KHAF 180100Z AUTO 00000KT 3SM HZ CLR 11/07 A3003 RMK AO2
KHAF 180055Z AUTO 00000KT 3SM HZ CLR 11/08 A3003 RMK AO2
KHAF 180040Z AUTO 00000KT 3SM HZ CLR 12/08 A3003 RMK AO2
KHAF 180035Z AUTO 00000KT 3SM HZ CLR 12/08 A3003 RMK AO2
KHAF 180020Z AUTO 00000KT 3SM HZ CLR 13/09 A3004 RMK AO2
KHAF 180015Z AUTO 00000KT 3SM HZ CLR 13/09 A3004 RMK AO2
KHAF 180000Z AUTO 00000KT 3SM HZ CLR 13/09 A3004 RMK AO2
KHAF 172355Z AUTO 31003KT 3SM HZ CLR 13/09 A3004 RMK AO2
KHAF 172340Z AUTO 32004KT 3SM HZ CLR 13/09 A3004 RMK AO2
KHAF 172335Z AUTO 30003KT 3SM HZ CLR 13/09 A3004 RMK AO2
KHAF 172320Z AUTO 31005KT 3SM HZ CLR 13/09 A3004 RMK AO2
KHAF 172315Z AUTO 31004KT 3SM HZ CLR 13/09 A3004 RMK AO2
No TAF found for KHAF